createdAt,value
2018-06-07T00:00:03.190Z,16.30
2018-06-07T00:02:40.678Z,16.30
2018-06-07T00:05:16.121Z,16.40
2018-06-07T00:07:53.493Z,16.50
2018-06-07T00:10:31.110Z,16.50
2018-06-07T00:13:07.675Z,16.50
2018-06-07T00:15:43.946Z,16.30
2018-06-07T00:18:21.839Z,16.40
2018-06-07T00:20:58.417Z,16.30
2018-06-07T00:23:34.454Z,16.30
2018-06-07T00:26:12.056Z,16.30
2018-06-07T00:28:50.947Z,16.30
2018-06-07T00:31:26.004Z,16.40
2018-06-07T00:34:06.064Z,16.50
2018-06-07T00:36:43.652Z,16.60
2018-06-07T00:39:20.030Z,16.60
2018-06-07T00:41:55.242Z,16.80
2018-06-07T00:47:11.159Z,16.80
2018-06-07T00:49:46.717Z,16.80
2018-06-07T00:52:22.547Z,16.80
2018-06-07T00:54:58.891Z,16.80
2018-06-07T00:57:35.494Z,16.80
2018-06-07T01:00:12.660Z,16.90
2018-06-07T01:02:49.390Z,16.90
2018-06-07T01:05:24.665Z,16.90
2018-06-07T01:08:00.932Z,16.90
2018-06-07T01:10:36.592Z,16.90
2018-06-07T01:15:54.034Z,16.70
2018-06-07T01:18:30.594Z,16.60
2018-06-07T01:21:06.133Z,16.60
2018-06-07T01:23:42.422Z,16.60
2018-06-07T01:26:19.702Z,16.60
2018-06-07T01:28:55.026Z,16.60
2018-06-07T01:33:51.366Z,16.70
2018-06-07T01:36:26.628Z,16.70
2018-06-07T01:39:09.951Z,16.80
2018-06-07T01:41:45.910Z,16.90
2018-06-07T01:44:21.951Z,16.90
2018-06-07T01:46:58.435Z,17.00
2018-06-07T01:49:34.381Z,17.00
2018-06-07T01:52:10.527Z,17.00
2018-06-07T01:57:21.410Z,17.00
2018-06-07T01:59:56.962Z,17.00
2018-06-07T02:02:33.630Z,16.90
2018-06-07T02:05:10.497Z,16.90
2018-06-07T02:07:45.338Z,16.80
2018-06-07T02:10:22.619Z,16.90
2018-06-07T02:12:59.492Z,16.80
2018-06-07T02:15:36.468Z,16.70
2018-06-07T02:18:12.743Z,16.70
2018-06-07T02:20:49.202Z,16.80
2018-06-07T02:23:25.390Z,16.70
2018-06-07T02:26:01.010Z,16.70
2018-06-07T02:28:36.348Z,16.60
2018-06-07T02:31:12.916Z,16.70
2018-06-07T02:33:49.696Z,16.70
2018-06-07T02:36:24.527Z,16.60
2018-06-07T02:39:01.731Z,16.60
2018-06-07T02:41:36.945Z,16.70
2018-06-07T02:44:13.529Z,16.80
2018-06-07T02:46:51.217Z,16.70
2018-06-07T02:49:26.621Z,16.60
2018-06-07T02:52:03.422Z,16.70
2018-06-07T02:54:40.306Z,16.70
2018-06-07T02:57:16.031Z,16.70
2018-06-07T02:59:52.612Z,16.80
2018-06-07T03:02:28.283Z,16.80
2018-06-07T03:05:03.811Z,16.80
2018-06-07T03:07:39.563Z,16.70
2018-06-07T03:10:14.491Z,16.80
2018-06-07T03:12:52.298Z,16.80
2018-06-07T03:15:27.946Z,16.80
2018-06-07T03:18:03.665Z,16.80
2018-06-07T03:20:38.167Z,16.80
2018-06-07T03:23:16.567Z,16.60
2018-06-07T03:25:52.284Z,16.60
2018-06-07T03:28:29.673Z,16.70
2018-06-07T03:31:06.134Z,16.70
2018-06-07T03:33:41.886Z,16.70
2018-06-07T03:36:18.162Z,16.60
2018-06-07T03:38:53.895Z,16.60
2018-06-07T03:41:29.118Z,16.70
2018-06-07T03:44:05.611Z,16.70
2018-06-07T03:46:42.232Z,16.70
2018-06-07T03:49:17.925Z,16.80
2018-06-07T03:54:34.320Z,17.00
2018-06-07T03:57:09.473Z,17.00
2018-06-07T03:59:46.240Z,17.00
2018-06-07T04:02:21.580Z,16.90
2018-06-07T04:04:57.143Z,16.80
2018-06-07T04:07:32.800Z,16.90
2018-06-07T04:10:08.257Z,16.90
2018-06-07T04:12:45.522Z,16.90
2018-06-07T04:15:22.913Z,16.80
2018-06-07T04:17:58.847Z,16.70
2018-06-07T04:20:35.135Z,16.60
2018-06-07T04:23:11.139Z,16.70
2018-06-07T04:25:48.605Z,16.80
2018-06-07T04:28:23.825Z,16.80
2018-06-07T04:30:58.919Z,16.70
2018-06-07T04:33:34.129Z,16.70
2018-06-07T04:36:09.502Z,16.80
2018-06-07T04:38:45.270Z,16.90
2018-06-07T04:43:56.386Z,17.00
2018-06-07T04:46:35.769Z,17.10
2018-06-07T04:49:12.126Z,17.20
2018-06-07T04:51:47.901Z,17.30
2018-06-07T04:54:23.655Z,17.40
2018-06-07T04:56:58.687Z,17.40
2018-06-07T04:59:34.585Z,17.70
2018-06-07T05:02:12.334Z,17.80
2018-06-07T05:04:47.799Z,17.90
2018-06-07T05:07:24.955Z,17.90
2018-06-07T05:10:00.605Z,17.90
2018-06-07T05:12:37.175Z,17.90
2018-06-07T05:15:13.657Z,18.00
2018-06-07T05:17:49.604Z,18.00
2018-06-07T05:20:26.187Z,18.00
2018-06-07T05:23:01.513Z,18.00
2018-06-07T05:25:40.214Z,18.00
2018-06-07T05:30:36.066Z,18.10
2018-06-07T05:33:11.398Z,18.30
2018-06-07T05:35:47.459Z,18.40
2018-06-07T05:38:23.306Z,18.50
2018-06-07T05:40:58.662Z,18.60
2018-06-07T05:43:35.636Z,18.80
2018-06-07T05:46:11.457Z,18.80
2018-06-07T05:51:23.595Z,19.00
2018-06-07T05:53:59.135Z,18.90
2018-06-07T05:56:35.498Z,19.00
2018-06-07T06:01:46.494Z,18.90
2018-06-07T06:04:22.334Z,19.00
2018-06-07T06:06:57.683Z,19.10
2018-06-07T06:09:34.633Z,19.30
2018-06-07T06:12:09.530Z,19.30
2018-06-07T06:14:47.198Z,19.30
2018-06-07T06:17:23.567Z,19.50
2018-06-07T06:19:59.426Z,19.60
2018-06-07T06:25:10.834Z,19.50
2018-06-07T06:27:47.417Z,19.60
2018-06-07T06:30:24.558Z,19.30
2018-06-07T06:32:59.790Z,19.40
2018-06-07T06:35:35.846Z,19.50
2018-06-07T06:38:44.270Z,19.40
2018-06-07T06:41:19.502Z,19.70
2018-06-07T06:43:56.606Z,20.00
2018-06-07T06:46:32.260Z,20.30
2018-06-07T06:49:08.214Z,20.50
2018-06-07T06:51:45.080Z,20.60
2018-06-07T06:54:20.314Z,20.70
2018-06-07T06:56:57.113Z,21.00
2018-06-07T06:59:32.724Z,21.20
2018-06-07T07:02:08.888Z,21.10
2018-06-07T07:04:46.067Z,21.50
2018-06-07T07:07:21.534Z,21.80
2018-06-07T07:09:57.879Z,21.40
2018-06-07T07:12:33.422Z,21.20
2018-06-07T07:15:11.099Z,20.90
2018-06-07T07:17:47.385Z,21.10
2018-06-07T07:20:24.092Z,21.40
2018-06-07T07:22:58.787Z,21.60
2018-06-07T07:25:36.368Z,21.60
2018-06-07T07:28:11.588Z,21.70
2018-06-07T07:30:47.974Z,21.20
2018-06-07T07:33:23.734Z,21.60
2018-06-07T07:35:58.966Z,21.30
2018-06-07T07:38:35.854Z,21.30
2018-06-07T07:41:11.296Z,21.40
2018-06-07T07:43:47.445Z,21.70
2018-06-07T07:46:24.211Z,21.70
2018-06-07T07:48:59.242Z,21.80
2018-06-07T07:51:35.726Z,21.70
2018-06-07T07:54:11.875Z,21.20
2018-06-07T07:56:47.427Z,21.20
2018-06-07T07:59:24.695Z,21.20
2018-06-07T08:01:59.629Z,20.90
2018-06-07T08:04:37.327Z,21.20
2018-06-07T08:07:13.613Z,21.30
2018-06-07T08:09:49.749Z,21.50
2018-06-07T08:12:26.320Z,21.40
2018-06-07T08:15:02.462Z,21.60
2018-06-07T08:17:38.351Z,21.50
2018-06-07T08:20:14.198Z,21.30
2018-06-07T08:22:49.597Z,21.50
2018-06-07T08:25:25.168Z,21.80
2018-06-07T08:28:00.914Z,21.90
2018-06-07T08:30:37.469Z,21.80
2018-06-07T08:35:46.975Z,22.20
2018-06-07T08:38:24.847Z,22.40
2018-06-07T08:40:59.992Z,22.60
2018-06-07T08:43:36.269Z,22.80
2018-06-07T08:46:13.219Z,23.00
2018-06-07T08:48:49.285Z,23.40
2018-06-07T08:51:26.152Z,23.30
2018-06-07T08:54:01.474Z,23.10
2018-06-07T08:56:37.356Z,23.30
2018-06-07T08:59:14.544Z,23.60
2018-06-07T09:01:49.626Z,23.90
2018-06-07T09:04:25.523Z,24.30
2018-06-07T09:07:01.519Z,24.70
2018-06-07T09:09:36.378Z,24.80
2018-06-07T09:12:11.551Z,24.90
2018-06-07T09:14:48.315Z,24.80
2018-06-07T09:17:24.674Z,24.60
2018-06-07T09:22:34.981Z,24.90
2018-06-07T09:25:10.364Z,24.70
2018-06-07T09:27:47.155Z,24.60
2018-06-07T09:30:22.933Z,24.20
2018-06-07T09:32:59.066Z,24.50
2018-06-07T09:35:35.808Z,24.80
2018-06-07T09:38:11.307Z,24.30
2018-06-07T09:40:47.554Z,25.20
2018-06-07T09:43:22.488Z,25.30
2018-06-07T09:45:58.024Z,26.00
2018-06-07T09:48:33.668Z,26.20
2018-06-07T09:51:09.018Z,26.40
2018-06-07T09:53:45.869Z,26.40
2018-06-07T09:56:21.747Z,26.30
2018-06-07T09:58:56.797Z,26.50
2018-06-07T10:01:32.622Z,26.80
2018-06-07T10:04:07.771Z,27.00
2018-06-07T10:06:44.957Z,25.80
2018-06-07T10:09:21.424Z,25.10
2018-06-07T10:11:57.787Z,24.80
2018-06-07T10:14:35.590Z,24.70
2018-06-07T10:17:11.453Z,24.50
2018-06-07T10:19:46.861Z,25.70
2018-06-07T10:22:26.460Z,25.70
2018-06-07T10:25:02.261Z,26.20
2018-06-07T10:27:37.311Z,26.70
2018-06-07T10:30:14.070Z,27.10
2018-06-07T10:32:49.815Z,26.00
2018-06-07T10:35:27.118Z,26.90
2018-06-07T10:38:03.265Z,28.00
2018-06-07T10:43:13.825Z,27.80
2018-06-07T10:45:50.535Z,27.80
2018-06-07T10:48:26.018Z,28.10
2018-06-07T10:53:36.486Z,27.00
2018-06-07T10:56:11.487Z,27.20
2018-06-07T10:58:47.436Z,27.30
2018-06-07T11:01:23.492Z,28.20
2018-06-07T11:03:58.701Z,27.20
2018-06-07T11:06:34.299Z,27.60
2018-06-07T11:09:09.390Z,27.80
2018-06-07T11:11:45.927Z,27.90
2018-06-07T11:14:21.368Z,27.20
2018-06-07T11:16:58.195Z,27.60
2018-06-07T11:19:33.232Z,28.60
2018-06-07T11:22:08.505Z,28.50
2018-06-07T11:24:43.860Z,27.80
2018-06-07T11:27:19.523Z,28.10
2018-06-07T11:29:55.285Z,28.60
2018-06-07T11:32:31.762Z,28.80
2018-06-07T11:35:06.753Z,29.70
2018-06-07T11:40:17.474Z,28.90
2018-06-07T11:42:53.851Z,29.10
2018-06-07T11:45:29.556Z,29.70
2018-06-07T11:48:04.106Z,30.10
2018-06-07T11:50:38.671Z,30.50
2018-06-07T11:53:13.984Z,30.10
2018-06-07T11:55:49.100Z,30.00
2018-06-07T11:58:24.011Z,30.30
2018-06-07T12:00:59.383Z,30.30
2018-06-07T12:06:09.796Z,28.60
2018-06-07T12:08:44.443Z,28.10
2018-06-07T12:11:19.911Z,28.90
2018-06-07T12:13:56.380Z,29.70
2018-06-07T12:16:33.941Z,29.80
2018-06-07T12:19:09.517Z,29.60
2018-06-07T12:21:45.461Z,30.20
2018-06-07T12:24:20.782Z,30.70
2018-06-07T12:26:55.954Z,31.20
2018-06-07T12:29:31.137Z,30.70
2018-06-07T12:32:06.939Z,31.20
2018-06-07T12:37:17.668Z,30.60
2018-06-07T12:39:53.813Z,31.20
2018-06-07T12:42:28.934Z,32.80
2018-06-07T12:45:04.571Z,33.80
2018-06-07T12:47:39.813Z,34.40
2018-06-07T12:50:16.784Z,32.80
2018-06-07T12:52:54.490Z,32.40
2018-06-07T12:55:30.220Z,33.70
2018-06-07T12:58:05.569Z,33.80
2018-06-07T13:00:41.090Z,33.20
2018-06-07T13:03:17.470Z,31.40
2018-06-07T13:05:53.607Z,31.10
2018-06-07T13:08:30.194Z,32.30
2018-06-07T13:11:06.980Z,32.40
2018-06-07T13:13:42.592Z,33.20
2018-06-07T13:16:18.884Z,32.00
2018-06-07T13:18:56.975Z,32.90
2018-06-07T13:21:33.973Z,33.40
2018-06-07T13:24:09.500Z,33.60
2018-06-07T13:26:46.191Z,35.00
2018-06-07T13:29:23.075Z,33.50
2018-06-07T13:31:58.796Z,33.20
2018-06-07T13:34:36.390Z,33.60
2018-06-07T13:37:13.938Z,30.00
2018-06-07T13:39:49.497Z,29.60
2018-06-07T13:42:24.663Z,29.40
2018-06-07T13:44:59.968Z,32.30
2018-06-07T13:47:35.748Z,33.90
2018-06-07T13:50:11.086Z,34.90
2018-06-07T13:52:46.214Z,34.10
2018-06-07T13:55:21.649Z,34.50
2018-06-07T13:57:57.430Z,32.90
2018-06-07T14:00:32.651Z,33.90
2018-06-07T14:03:08.035Z,31.80
2018-06-07T14:05:45.296Z,31.00
2018-06-07T14:08:21.432Z,32.70
2018-06-07T14:10:57.303Z,33.90
2018-06-07T14:13:32.490Z,32.70
2018-06-07T14:16:07.870Z,33.80
2018-06-07T14:18:43.711Z,31.60
2018-06-07T14:21:19.242Z,32.40
2018-06-07T14:29:04.461Z,33.00
2018-06-07T14:31:40.249Z,32.90
2018-06-07T14:34:15.931Z,32.10
2018-06-07T14:36:54.525Z,34.10
2018-06-07T14:39:30.945Z,34.50
2018-06-07T14:42:06.279Z,34.40
2018-06-07T14:44:41.407Z,35.00
2018-06-07T14:47:16.958Z,36.30
2018-06-07T14:49:52.258Z,37.30
2018-06-07T14:52:27.986Z,37.30
2018-06-07T14:55:04.315Z,36.90
2018-06-07T14:57:40.041Z,38.90
2018-06-07T15:00:15.012Z,39.30
2018-06-07T15:02:52.781Z,35.20
2018-06-07T15:08:03.429Z,34.30
2018-06-07T15:10:39.322Z,36.00
2018-06-07T15:13:14.757Z,37.70
2018-06-07T15:15:53.776Z,34.20
2018-06-07T15:18:32.091Z,35.80
2018-06-07T15:21:09.883Z,35.90
2018-06-07T15:23:46.030Z,35.60
2018-06-07T15:26:21.490Z,35.60
2018-06-07T15:28:57.847Z,35.90
2018-06-07T15:31:33.385Z,35.40
2018-06-07T15:34:08.823Z,34.60
2018-06-07T15:36:44.807Z,34.70
2018-06-07T15:39:20.424Z,35.10
2018-06-07T15:41:55.728Z,35.90
2018-06-07T15:44:31.522Z,37.50
2018-06-07T15:47:07.886Z,38.00
2018-06-07T15:49:45.077Z,37.50
2018-06-07T15:52:21.353Z,37.60
2018-06-07T15:54:57.804Z,37.20
2018-06-07T15:57:33.058Z,36.50
2018-06-07T16:00:11.050Z,34.30
2018-06-07T16:02:46.645Z,33.10
2018-06-07T16:07:58.171Z,32.00
2018-06-07T16:10:32.996Z,31.90
2018-06-07T16:13:09.383Z,32.00
2018-06-07T16:15:45.115Z,32.30
2018-06-07T16:18:20.471Z,31.90
2018-06-07T16:23:31.138Z,31.00
2018-06-07T16:28:41.107Z,30.60
2018-06-07T16:31:16.515Z,30.20
2018-06-07T16:33:51.661Z,29.90
2018-06-07T16:36:26.994Z,29.70
2018-06-07T16:39:02.283Z,29.70
2018-06-07T16:44:12.626Z,29.20
2018-06-07T16:46:48.976Z,29.10
2018-06-07T16:49:24.701Z,29.20
2018-06-07T16:51:59.809Z,29.00
2018-06-07T16:54:34.989Z,28.80
2018-06-07T16:57:10.771Z,28.60
2018-06-07T16:59:46.841Z,28.30
2018-06-07T17:02:22.320Z,28.20
2018-06-07T17:04:58.170Z,28.10
2018-06-07T17:07:33.247Z,27.70
2018-06-07T17:10:08.695Z,27.50
2018-06-07T17:12:43.626Z,27.30
2018-06-07T17:15:18.978Z,27.30
2018-06-07T17:17:54.104Z,27.10
2018-06-07T17:20:30.080Z,26.90
2018-06-07T17:23:05.769Z,26.20
2018-06-07T17:28:16.407Z,24.60
2018-06-07T17:30:53.751Z,23.70
2018-06-07T17:33:29.229Z,23.40
2018-06-07T17:36:05.507Z,23.20
2018-06-07T17:38:40.309Z,22.80
2018-06-07T17:41:15.969Z,22.50
2018-06-07T17:46:26.454Z,22.10
2018-06-07T17:49:01.684Z,21.80
2018-06-07T17:51:37.525Z,21.70
2018-06-07T17:54:13.503Z,21.60
2018-06-07T17:56:49.241Z,21.20
2018-06-07T17:59:25.662Z,20.90
2018-06-07T18:02:01.663Z,20.70
2018-06-07T18:04:38.589Z,20.60
2018-06-07T18:07:14.079Z,20.50
2018-06-07T18:09:51.475Z,20.10
2018-06-07T18:12:27.926Z,19.40
2018-06-07T18:15:03.497Z,19.20
2018-06-07T18:17:39.468Z,19.00
2018-06-07T18:20:14.984Z,18.90
2018-06-07T18:22:50.937Z,18.80
2018-06-07T18:25:25.764Z,18.70
2018-06-07T18:28:01.820Z,18.20
2018-06-07T18:30:37.983Z,17.60
2018-06-07T18:33:13.931Z,17.20
2018-06-07T18:35:50.810Z,17.00
2018-06-07T18:38:25.946Z,16.80
2018-06-07T18:41:01.139Z,16.70
2018-06-07T18:43:37.140Z,16.60
2018-06-07T18:46:12.703Z,16.60
2018-06-07T18:48:48.884Z,16.50
2018-06-07T18:51:23.683Z,16.50
2018-06-07T18:53:59.200Z,16.50
2018-06-07T18:59:10.219Z,16.40
2018-06-07T19:01:45.966Z,16.40
2018-06-07T19:04:21.604Z,16.40
2018-06-07T19:06:57.418Z,16.50
2018-06-07T19:09:37.702Z,16.60
2018-06-07T19:12:13.757Z,16.60
2018-06-07T19:14:54.006Z,16.90
2018-06-07T19:17:28.865Z,16.90
2018-06-07T19:20:10.559Z,17.00
2018-06-07T19:22:47.927Z,17.10
2018-06-07T19:25:28.579Z,17.20
2018-06-07T19:28:07.088Z,17.30
2018-06-07T19:30:42.358Z,17.20
2018-06-07T19:35:25.430Z,17.10
2018-06-07T19:38:04.406Z,17.10
2018-06-07T19:40:45.008Z,17.00
2018-06-07T19:43:23.784Z,17.10
2018-06-07T19:45:59.034Z,17.00
2018-06-07T19:48:36.531Z,17.00
2018-06-07T19:51:11.846Z,17.00
2018-06-07T19:53:47.860Z,16.90
2018-06-07T19:56:25.955Z,17.00
2018-06-07T19:59:01.330Z,16.90
2018-06-07T20:04:12.879Z,16.90
2018-06-07T20:06:48.373Z,16.90
2018-06-07T20:09:25.409Z,16.80
2018-06-07T20:12:01.650Z,16.70
2018-06-07T20:14:36.681Z,16.70
2018-06-07T20:17:12.471Z,16.60
2018-06-07T20:19:48.167Z,16.60
2018-06-07T20:22:24.962Z,16.60
2018-06-07T20:25:00.756Z,16.60
2018-06-07T20:27:36.558Z,16.60
2018-06-07T20:30:12.707Z,16.60
2018-06-07T20:32:47.812Z,16.50
2018-06-07T20:35:22.992Z,16.50
2018-06-07T20:37:58.111Z,16.50
2018-06-07T20:40:33.173Z,16.60
2018-06-07T20:45:43.430Z,16.50
2018-06-07T20:48:18.717Z,16.50
2018-06-07T20:50:56.666Z,16.50
2018-06-07T20:53:31.895Z,16.60
2018-06-07T20:56:07.324Z,16.50
2018-06-07T20:58:42.476Z,16.60
2018-06-07T21:01:18.461Z,16.60
2018-06-07T21:03:54.583Z,16.50
2018-06-07T21:06:30.025Z,16.50
2018-06-07T21:09:07.906Z,16.50
2018-06-07T21:11:43.448Z,16.50
2018-06-07T21:16:52.781Z,16.40
2018-06-07T21:19:27.663Z,16.50
2018-06-07T21:22:02.992Z,16.50
2018-06-07T21:24:37.586Z,16.50
2018-06-07T21:27:12.334Z,16.30
2018-06-07T21:29:47.811Z,16.20
2018-06-07T21:32:22.735Z,16.20
2018-06-07T21:34:58.551Z,16.20
2018-06-07T21:37:33.709Z,16.10
2018-06-07T21:40:09.079Z,16.00
2018-06-07T21:42:44.783Z,16.00
2018-06-07T21:45:20.334Z,16.00
2018-06-07T21:47:55.584Z,15.90
2018-06-07T21:50:31.316Z,15.90
2018-06-07T21:53:07.241Z,15.90
2018-06-07T21:55:42.452Z,16.00
2018-06-07T21:58:16.774Z,16.10
2018-06-07T22:00:52.484Z,15.90
2018-06-07T22:03:27.932Z,15.90
2018-06-07T22:06:03.134Z,15.90
2018-06-07T22:08:39.319Z,15.90
2018-06-07T22:11:15.308Z,15.90
2018-06-07T22:13:50.802Z,16.00
2018-06-07T22:16:27.514Z,16.00
2018-06-07T22:19:03.244Z,16.00
2018-06-07T22:21:38.747Z,16.00
2018-06-07T22:24:15.400Z,16.00
2018-06-07T22:26:51.633Z,15.90
2018-06-07T22:29:28.059Z,15.70
2018-06-07T22:32:03.331Z,15.50
2018-06-07T22:34:38.804Z,15.40
2018-06-07T22:37:14.748Z,15.30
2018-06-07T22:39:50.295Z,15.30
2018-06-07T22:42:26.741Z,15.20
2018-06-07T22:45:03.004Z,15.20
2018-06-07T22:47:39.061Z,15.20
2018-06-07T22:50:15.277Z,15.20
2018-06-07T22:52:50.017Z,15.20
2018-06-07T22:55:24.561Z,15.20
2018-06-07T22:57:59.911Z,15.30
2018-06-07T23:00:35.540Z,15.30
2018-06-07T23:03:11.312Z,15.30
2018-06-07T23:05:46.358Z,15.30
2018-06-07T23:08:20.859Z,15.20
2018-06-07T23:10:56.868Z,15.20
2018-06-07T23:13:32.939Z,15.20
2018-06-07T23:16:09.613Z,15.30
2018-06-07T23:18:45.303Z,15.20
2018-06-07T23:21:20.742Z,15.30
2018-06-07T23:23:57.890Z,15.20
2018-06-07T23:26:33.778Z,15.20
2018-06-07T23:29:09.230Z,15.20
2018-06-07T23:31:44.305Z,15.10
2018-06-07T23:34:19.518Z,15.10
2018-06-07T23:36:55.503Z,15.10
2018-06-07T23:39:32.112Z,15.10
2018-06-07T23:42:09.088Z,15.10
2018-06-07T23:44:44.594Z,14.90
2018-06-07T23:47:20.219Z,15.00
2018-06-07T23:49:56.103Z,15.00
2018-06-07T23:52:31.666Z,15.00
2018-06-07T23:55:07.505Z,15.00
2018-06-07T23:57:42.966Z,15.10
